Time,TemperatureF,DewpointF,PressureIn,WindDirection,WindDirectionDegrees,WindSpeedMPH,WindSpeedGustMPH,Humidity,HourlyPrecipIn,Conditions,Clouds,dailyrainin,SoftwareType,DateUTC
2013-07-15 00:02:00,72.0,68.0,-100.00,WNW,290,1.0,2.0,87,0.00,,,-99.99,,2013-07-15 05:02:00,
2013-07-15 00:11:00,71.0,67.0,-100.00,West,275,4.0,4.0,88,0.00,,,-99.99,,2013-07-15 05:11:00,
2013-07-15 00:32:00,71.0,67.0,-100.00,West,275,2.0,3.0,88,0.00,,,-99.99,,2013-07-15 05:32:00,
2013-07-15 00:43:00,71.0,67.0,-100.00,WNW,285,3.0,4.0,90,0.00,,,-99.99,,2013-07-15 05:43:00,
2013-07-15 00:53:00,70.0,67.0,-100.00,WNW,295,4.0,4.0,90,0.00,,,-99.99,,2013-07-15 05:53:00,
2013-07-15 01:22:00,69.0,67.0,-100.00,NW,310,3.0,4.0,92,0.00,,,-99.99,,2013-07-15 06:22:00,
2013-07-15 01:32:00,69.0,67.0,-100.00,West,280,2.0,3.0,92,0.00,,,-99.99,,2013-07-15 06:32:00,
2013-07-15 01:42:00,69.0,67.0,-100.00,West,280,2.0,3.0,92,0.00,,,-99.99,,2013-07-15 06:42:00,
2013-07-15 02:01:00,69.0,67.0,-100.00,WSW,240,1.0,2.0,91,0.00,,,-99.99,,2013-07-15 07:01:00,
2013-07-15 02:11:00,69.0,67.0,-100.00,WSW,240,1.0,3.0,91,0.00,,,-99.99,,2013-07-15 07:11:00,
2013-07-15 02:21:00,69.0,67.0,-100.00,WSW,240,1.0,1.0,91,0.00,,,-99.99,,2013-07-15 07:21:00,
2013-07-15 02:33:00,69.0,67.0,-100.00,WSW,240,1.0,1.0,91,0.00,,,-99.99,,2013-07-15 07:33:00,
2013-07-15 02:44:00,69.0,67.0,-100.00,West,275,2.0,3.0,91,0.00,,,-99.99,,2013-07-15 07:44:00,
2013-07-15 02:53:00,69.0,66.0,-100.00,WNW,290,2.0,3.0,91,0.00,,,-99.99,,2013-07-15 07:53:00,
2013-07-15 03:01:00,69.0,66.0,-100.00,WNW,285,1.0,3.0,91,0.00,,,-99.99,,2013-07-15 08:01:00,
2013-07-15 03:11:00,69.0,66.0,-100.00,NE,40,1.0,3.0,91,0.00,,,-99.99,,2013-07-15 08:11:00,
2013-07-15 03:32:00,69.0,67.0,-100.00,SSW,205,1.0,2.0,91,0.00,,,-99.99,,2013-07-15 08:32:00,
2013-07-15 03:43:00,69.0,67.0,-100.00,SSE,150,1.0,4.0,91,0.00,,,-99.99,,2013-07-15 08:43:00,
2013-07-15 04:22:00,70.0,67.0,-100.00,SE,140,0.0,2.0,91,0.00,,,-99.99,,2013-07-15 09:22:00,
2013-07-15 04:32:00,70.0,67.0,-100.00,SW,225,0.0,2.0,90,0.00,,,-99.99,,2013-07-15 09:32:00,
2013-07-15 04:43:00,70.0,67.0,-100.00,SW,225,1.0,2.0,90,0.00,,,-99.99,,2013-07-15 09:43:00,
2013-07-15 05:02:00,70.0,67.0,-100.00,SSW,195,1.0,2.0,89,0.00,,,-99.99,,2013-07-15 10:02:00,
2013-07-15 05:11:00,70.0,67.0,-100.00,SSW,195,1.0,2.0,89,0.00,,,-99.99,,2013-07-15 10:11:00,
2013-07-15 05:22:00,70.0,67.0,-100.00,SE,135,2.0,2.0,90,0.00,,,-99.99,,2013-07-15 10:22:00,
2013-07-15 05:32:00,70.0,67.0,-100.00,SE,135,2.0,2.0,90,0.00,,,-99.99,,2013-07-15 10:32:00,
2013-07-15 05:43:00,70.0,67.0,-100.00,SE,125,1.0,2.0,90,0.00,,,-99.99,,2013-07-15 10:43:00,
2013-07-15 05:53:00,70.0,67.0,-100.00,SE,125,1.0,2.0,90,0.00,,,-99.99,,2013-07-15 10:53:00,
2013-07-15 06:02:00,71.0,67.0,-100.00,SE,145,2.0,3.0,89,0.00,,,-99.99,,2013-07-15 11:02:00,
2013-07-15 06:11:00,71.0,67.0,-100.00,SE,145,2.0,2.0,88,0.00,,,-99.99,,2013-07-15 11:11:00,
2013-07-15 06:32:00,72.0,68.0,-100.00,ESE,105,2.0,4.0,88,0.00,,,-99.99,,2013-07-15 11:32:00,
2013-07-15 06:42:00,72.0,68.0,-100.00,SE,125,2.0,3.0,86,0.00,,,-99.99,,2013-07-15 11:42:00,
2013-07-15 06:52:00,73.0,68.0,-100.00,SE,130,2.0,2.0,84,0.00,,,-99.99,,2013-07-15 11:52:00,
2013-07-15 07:11:00,73.0,68.0,-100.00,ESE,115,1.0,2.0,82,0.00,,,-99.99,,2013-07-15 12:11:00,
2013-07-15 07:22:00,73.0,68.0,-100.00,ESE,115,1.0,2.0,82,0.00,,,-99.99,,2013-07-15 12:22:00,
2013-07-15 07:32:00,73.0,68.0,-100.00,SSE,165,9.0,12.0,82,0.00,,,-99.99,,2013-07-15 12:32:00,
2013-07-15 07:42:00,72.0,69.0,-100.00,ENE,75,4.0,6.0,89,0.04,,,-99.99,,2013-07-15 12:42:00,
2013-07-15 08:01:00,72.0,69.0,-100.00,East,90,0.0,4.0,93,0.00,,,-99.99,,2013-07-15 13:01:00,
2013-07-15 08:33:00,72.0,71.0,-100.00,WNW,290,2.0,3.0,94,0.00,,,-99.99,,2013-07-15 13:33:00,
2013-07-15 08:43:00,73.0,71.0,-100.00,WSW,245,1.0,2.0,94,0.00,,,-99.99,,2013-07-15 13:43:00,
2013-07-15 08:53:00,74.0,73.0,-100.00,WSW,245,0.0,1.0,94,0.00,,,-99.99,,2013-07-15 13:53:00,
2013-07-15 09:02:00,75.0,73.0,-100.00,SW,235,0.0,1.0,93,0.00,,,-99.99,,2013-07-15 14:02:00,
2013-07-15 09:33:00,75.0,72.0,-100.00,SSW,210,2.0,2.0,91,0.00,,,-99.99,,2013-07-15 14:33:00,
2013-07-15 09:42:00,75.0,72.0,-100.00,SSW,205,2.0,4.0,91,0.00,,,-99.99,,2013-07-15 14:42:00,
2013-07-15 09:56:00,76.0,73.0,-100.00,SSW,205,0.0,2.0,91,0.00,,,-99.99,,2013-07-15 14:56:00,
2013-07-15 10:38:00,81.0,71.0,-100.00,NW,325,2.0,4.0,72,0.00,,,-99.99,,2013-07-15 15:38:00,
2013-07-15 10:45:00,82.0,72.0,-100.00,West,280,2.0,3.0,71,0.00,,,-99.99,,2013-07-15 15:45:00,
2013-07-15 10:53:00,82.0,72.0,-100.00,NW,305,4.0,5.0,70,0.00,,,-99.99,,2013-07-15 15:53:00,
2013-07-15 11:15:00,85.0,72.0,-100.00,NW,325,2.0,4.0,65,0.00,,,-99.99,,2013-07-15 16:15:00,
2013-07-15 11:24:00,84.0,70.0,-100.00,SW,225,2.0,4.0,62,0.00,,,-99.99,,2013-07-15 16:24:00,
2013-07-15 11:52:00,89.0,69.0,-100.00,SE,140,2.0,5.0,51,0.00,,,-99.99,,2013-07-15 16:52:00,
2013-07-15 12:13:00,88.0,70.0,-100.00,SSW,205,2.0,6.0,55,0.00,,,-99.99,,2013-07-15 17:13:00,
2013-07-15 12:23:00,88.0,70.0,-100.00,SSW,205,2.0,6.0,55,0.00,,,-99.99,,2013-07-15 17:23:00,
2013-07-15 12:36:00,89.0,70.0,-100.00,ESE,120,4.0,7.0,54,0.00,,,-99.99,,2013-07-15 17:36:00,
2013-07-15 12:48:00,87.0,69.0,-100.00,ESE,115,4.0,6.0,54,0.00,,,-99.99,,2013-07-15 17:48:00,
2013-07-15 13:16:00,87.0,70.0,-100.00,East,100,4.0,9.0,57,0.00,,,-99.99,,2013-07-15 18:16:00,
2013-07-15 13:26:00,87.0,70.0,-100.00,East,100,4.0,9.0,57,0.00,,,-99.99,,2013-07-15 18:26:00,
2013-07-15 13:45:00,88.0,70.0,-100.00,ESE,120,7.0,11.0,55,0.00,,,-99.99,,2013-07-15 18:45:00,
2013-07-15 14:11:00,87.0,68.0,-100.00,ESE,120,7.0,12.0,53,0.00,,,-99.99,,2013-07-15 19:11:00,
2013-07-15 14:24:00,86.0,68.0,-100.00,East,100,9.0,12.0,54,0.00,,,-99.99,,2013-07-15 19:24:00,
2013-07-15 14:36:00,86.0,68.0,-100.00,East,100,9.0,12.0,54,0.00,,,-99.99,,2013-07-15 19:36:00,
2013-07-15 14:47:00,89.0,67.0,-100.00,ESE,120,6.0,10.0,49,0.00,,,-99.99,,2013-07-15 19:47:00,
2013-07-15 14:55:00,89.0,67.0,-100.00,ESE,120,6.0,10.0,49,0.00,,,-99.99,,2013-07-15 19:55:00,
2013-07-15 15:06:00,90.0,67.0,-100.00,East,100,4.0,9.0,48,0.00,,,-99.99,,2013-07-15 20:06:00,
2013-07-15 15:17:00,90.0,69.0,-100.00,East,90,4.0,9.0,48,0.00,,,-99.99,,2013-07-15 20:17:00,
2013-07-15 15:37:00,91.0,69.0,-100.00,SE,130,5.0,11.0,48,0.00,,,-99.99,,2013-07-15 20:37:00,
2013-07-15 15:43:00,91.0,69.0,-100.00,ESE,115,5.0,12.0,49,0.00,,,-99.99,,2013-07-15 20:43:00,
2013-07-15 15:54:00,90.0,69.0,-100.00,SSE,150,9.0,12.0,49,0.00,,,-99.99,,2013-07-15 20:54:00,
2013-07-15 16:02:00,90.0,69.0,-100.00,East,100,7.0,15.0,50,0.00,,,-99.99,,2013-07-15 21:02:00,
2013-07-15 16:12:00,90.0,69.0,-100.00,ESE,110,9.0,14.0,49,0.00,,,-99.99,,2013-07-15 21:12:00,
2013-07-15 16:23:00,90.0,69.0,-100.00,ESE,110,9.0,14.0,49,0.00,,,-99.99,,2013-07-15 21:23:00,
2013-07-15 16:47:00,92.0,70.0,-100.00,SE,130,6.0,12.0,49,0.00,,,-99.99,,2013-07-15 21:47:00,
2013-07-15 17:03:00,90.0,68.0,-100.00,ESE,105,8.0,18.0,48,0.00,,,-99.99,,2013-07-15 22:03:00,
2013-07-15 17:17:00,91.0,69.0,-100.00,SSE,150,7.0,12.0,47,0.00,,,-99.99,,2013-07-15 22:17:00,
2013-07-15 17:22:00,90.0,68.0,-100.00,ESE,120,5.0,11.0,49,0.00,,,-99.99,,2013-07-15 22:22:00,
2013-07-15 17:34:00,90.0,68.0,-100.00,ESE,120,5.0,11.0,49,0.00,,,-99.99,,2013-07-15 22:34:00,
2013-07-15 17:43:00,91.0,68.0,-100.00,SE,135,8.0,12.0,46,0.00,,,-99.99,,2013-07-15 22:43:00,
2013-07-15 18:06:00,92.0,68.0,-100.00,SE,130,6.0,14.0,46,0.00,,,-99.99,,2013-07-15 23:06:00,
2013-07-15 18:13:00,90.0,68.0,-100.00,ESE,120,9.0,15.0,47,0.00,,,-99.99,,2013-07-15 23:13:00,
2013-07-15 18:38:00,90.0,67.0,-100.00,ESE,105,7.0,14.0,48,0.00,,,-99.99,,2013-07-15 23:38:00,
2013-07-15 18:46:00,91.0,68.0,-100.00,SE,140,5.0,8.0,47,0.00,,,-99.99,,2013-07-15 23:46:00,
2013-07-15 18:53:00,91.0,69.0,-100.00,ESE,105,9.0,14.0,47,0.00,,,-99.99,,2013-07-15 23:53:00,
2013-07-15 19:25:00,87.0,69.0,-100.00,ESE,120,4.0,9.0,54,0.00,,,-99.99,,2013-07-16 00:25:00,
2013-07-15 19:33:00,87.0,70.0,-100.00,SE,130,6.0,9.0,55,0.00,,,-99.99,,2013-07-16 00:33:00,
2013-07-15 19:46:00,87.0,70.0,-100.00,ESE,110,4.0,7.0,56,0.00,,,-99.99,,2013-07-16 00:46:00,
2013-07-15 19:53:00,88.0,70.0,-100.00,ESE,115,6.0,10.0,56,0.00,,,-99.99,,2013-07-16 00:53:00,
2013-07-15 20:08:00,88.0,70.0,-100.00,ESE,115,6.0,10.0,56,0.00,,,-99.99,,2013-07-16 01:08:00,
2013-07-15 20:15:00,87.0,70.0,-100.00,ESE,105,5.0,9.0,57,0.00,,,-99.99,,2013-07-16 01:15:00,
2013-07-15 20:26:00,87.0,70.0,-100.00,ESE,115,6.0,10.0,58,0.00,,,-99.99,,2013-07-16 01:26:00,
2013-07-15 20:36:00,87.0,70.0,-100.00,ESE,115,6.0,10.0,58,0.00,,,-99.99,,2013-07-16 01:36:00,
2013-07-15 20:47:00,85.0,70.0,-100.00,ESE,110,4.0,7.0,60,0.00,,,-99.99,,2013-07-16 01:47:00,
2013-07-15 20:57:00,85.0,70.0,-100.00,ESE,110,4.0,7.0,60,0.00,,,-99.99,,2013-07-16 01:57:00,
2013-07-15 21:04:00,84.0,69.0,-100.00,ESE,105,4.0,8.0,61,0.00,,,-99.99,,2013-07-16 02:04:00,
2013-07-15 21:11:00,83.0,70.0,-100.00,SE,135,5.0,7.0,63,0.00,,,-99.99,,2013-07-16 02:11:00,
2013-07-15 21:35:00,83.0,70.0,-100.00,ESE,115,4.0,6.0,66,0.00,,,-99.99,,2013-07-16 02:35:00,
2013-07-15 21:47:00,82.0,71.0,-100.00,SE,130,4.0,7.0,69,0.00,,,-99.99,,2013-07-16 02:47:00,
2013-07-15 21:54:00,82.0,72.0,-100.00,ESE,115,4.0,6.0,72,0.00,,,-99.99,,2013-07-16 02:54:00,
2013-07-15 22:27:00,81.0,72.0,-100.00,SE,135,3.0,4.0,75,0.00,,,-99.99,,2013-07-16 03:27:00,
2013-07-15 22:38:00,81.0,72.0,-100.00,SE,130,2.0,4.0,75,0.00,,,-99.99,,2013-07-16 03:38:00,
2013-07-15 22:47:00,80.0,72.0,-100.00,SE,135,2.0,4.0,77,0.00,,,-99.99,,2013-07-16 03:47:00,
2013-07-15 22:56:00,80.0,72.0,-100.00,South,175,2.0,4.0,78,0.00,,,-99.99,,2013-07-16 03:56:00,
2013-07-15 23:01:00,80.0,72.0,-100.00,South,175,2.0,4.0,78,0.00,,,-99.99,,2013-07-16 04:01:00,
2013-07-15 23:12:00,79.0,72.0,-100.00,SE,135,1.0,3.0,78,0.00,,,-99.99,,2013-07-16 04:12:00,
2013-07-15 23:22:00,79.0,72.0,-100.00,SE,135,0.0,1.0,79,0.00,,,-99.99,,2013-07-16 04:22:00,
2013-07-15 23:32:00,79.0,72.0,-100.00,SE,135,0.0,1.0,79,0.00,,,-99.99,,2013-07-16 04:32:00,
2013-07-15 23:43:00,79.0,72.0,-100.00,SE,135,1.0,2.0,81,0.00,,,-99.99,,2013-07-16 04:43:00,